createdAt,value
2018-03-15T00:03:28.066Z,5.55
2018-03-15T00:05:54.518Z,5.57
2018-03-15T00:08:23.765Z,5.45
2018-03-15T00:10:50.246Z,6.30
2018-03-15T00:13:16.631Z,5.72
2018-03-15T00:15:43.101Z,5.85
2018-03-15T00:18:09.504Z,5.25
2018-03-15T00:20:36.350Z,5.60
2018-03-15T00:23:03.491Z,5.97
2018-03-15T00:25:30.280Z,5.50
2018-03-15T00:27:57.013Z,6.00
2018-03-15T00:30:24.939Z,4.80
2018-03-15T00:32:51.961Z,5.57
2018-03-15T00:35:18.357Z,5.28
2018-03-15T00:37:44.988Z,4.97
2018-03-15T00:40:11.372Z,5.10
2018-03-15T00:42:38.056Z,5.55
2018-03-15T00:45:06.127Z,5.22
2018-03-15T00:47:32.656Z,5.45
2018-03-15T00:49:59.424Z,5.47
2018-03-15T00:52:25.876Z,5.43
2018-03-15T00:54:52.284Z,4.95
2018-03-15T00:57:18.668Z,5.55
2018-03-15T00:59:46.324Z,5.40
2018-03-15T01:02:13.854Z,4.80
2018-03-15T01:04:40.268Z,5.30
2018-03-15T01:07:07.464Z,4.78
2018-03-15T01:09:33.950Z,7.35
2018-03-15T01:12:00.775Z,4.87
2018-03-15T01:14:27.936Z,5.53
2018-03-15T01:16:55.412Z,5.30
2018-03-15T01:19:21.950Z,6.00
2018-03-15T01:21:48.723Z,5.28
2018-03-15T01:24:15.653Z,5.40
2018-03-15T01:26:42.059Z,6.05
2018-03-15T01:29:10.243Z,4.97
2018-03-15T01:31:36.749Z,6.28
2018-03-15T01:34:03.157Z,5.60
2018-03-15T01:36:29.920Z,6.53
2018-03-15T01:38:56.365Z,6.15
2018-03-15T01:41:22.883Z,5.90
2018-03-15T01:43:49.340Z,5.20
2018-03-15T01:46:17.011Z,5.68
2018-03-15T01:48:45.013Z,5.10
2018-03-15T01:51:12.196Z,5.20
2018-03-15T01:53:40.194Z,5.80
2018-03-15T01:56:06.588Z,5.15
2018-03-15T01:58:32.983Z,5.05
2018-03-15T02:01:03.077Z,5.10
2018-03-15T02:03:30.668Z,4.80
2018-03-15T02:05:57.167Z,5.43
2018-03-15T02:08:23.745Z,4.47
2018-03-15T02:10:51.270Z,4.65
2018-03-15T02:13:18.961Z,5.25
2018-03-15T02:15:45.374Z,5.82
2018-03-15T02:18:11.784Z,5.62
2018-03-15T02:20:38.321Z,5.20
2018-03-15T02:23:04.719Z,6.25
2018-03-15T02:25:31.128Z,6.20
2018-03-15T02:27:57.897Z,5.55
2018-03-15T02:30:24.304Z,5.28
2018-03-15T02:32:51.179Z,5.93
2018-03-15T02:35:18.320Z,6.40
2018-03-15T02:37:44.880Z,5.35
2018-03-15T02:40:11.741Z,5.15
2018-03-15T02:42:38.197Z,5.30
2018-03-15T02:45:04.695Z,5.87
2018-03-15T02:47:31.656Z,5.93
2018-03-15T02:49:58.464Z,6.20
2018-03-15T02:52:25.367Z,6.40
2018-03-15T02:54:51.918Z,5.93
2018-03-15T02:57:18.308Z,6.12
2018-03-15T02:59:45.305Z,5.55
2018-03-15T03:02:12.085Z,5.80
2018-03-15T03:04:39.882Z,5.95
2018-03-15T03:07:06.658Z,5.22
2018-03-15T03:09:33.497Z,6.97
2018-03-15T03:11:59.907Z,6.28
2018-03-15T03:14:27.049Z,5.80
2018-03-15T03:16:54.180Z,7.75
2018-03-15T03:19:20.581Z,7.00
2018-03-15T03:21:48.870Z,8.15
2018-03-15T03:24:15.640Z,7.30
2018-03-15T03:26:42.870Z,9.75
2018-03-15T03:29:09.791Z,6.93
2018-03-15T03:31:36.393Z,6.75
2018-03-15T03:34:04.189Z,7.12
2018-03-15T03:36:30.967Z,7.32
2018-03-15T03:38:57.368Z,6.90
2018-03-15T03:41:24.560Z,6.90
2018-03-15T03:43:52.640Z,7.25
2018-03-15T03:46:19.522Z,7.65
2018-03-15T03:48:46.341Z,6.97
2018-03-15T03:51:12.904Z,7.25
2018-03-15T03:53:39.448Z,7.72
2018-03-15T03:56:07.580Z,7.30
2018-03-15T03:58:35.080Z,9.63
2018-03-15T04:01:01.572Z,8.25
2018-03-15T04:03:28.028Z,9.00
2018-03-15T04:05:54.829Z,7.85
2018-03-15T04:08:22.031Z,7.37
2018-03-15T04:10:49.229Z,10.27
2018-03-15T04:13:16.003Z,10.38
2018-03-15T04:15:42.429Z,9.63
2018-03-15T04:18:08.839Z,12.00
2018-03-15T04:20:35.255Z,12.13
2018-03-15T04:23:01.857Z,13.93
2018-03-15T04:25:28.466Z,14.30
2018-03-15T04:27:54.931Z,14.43
2018-03-15T04:30:21.316Z,14.40
2018-03-15T04:32:48.691Z,14.00
2018-03-15T04:35:15.145Z,12.00
2018-03-15T04:37:41.758Z,19.05
2018-03-15T04:40:08.151Z,13.65
2018-03-15T04:42:34.527Z,13.85
2018-03-15T04:45:00.948Z,12.23
2018-03-15T04:47:27.728Z,11.65
2018-03-15T04:49:54.719Z,13.23
2018-03-15T04:52:22.099Z,12.68
2018-03-15T04:54:48.752Z,11.55
2018-03-15T04:57:16.324Z,10.00
2018-03-15T04:59:43.141Z,12.18
2018-03-15T05:02:09.922Z,10.07
2018-03-15T05:04:36.338Z,15.75
2018-03-15T05:07:03.114Z,14.68
2018-03-15T05:09:29.531Z,15.52
2018-03-15T05:11:55.939Z,14.87
2018-03-15T05:14:24.346Z,18.58
2018-03-15T05:16:51.961Z,15.95
2018-03-15T05:19:18.724Z,17.02
2018-03-15T05:21:45.515Z,13.30
2018-03-15T05:24:11.915Z,14.55
2018-03-15T05:26:38.827Z,16.33
2018-03-15T05:29:05.612Z,19.83
2018-03-15T05:31:32.631Z,18.85
2018-03-15T05:33:59.873Z,20.15
2018-03-15T05:36:26.900Z,18.73
2018-03-15T05:38:53.360Z,20.62
2018-03-15T05:41:20.585Z,25.33
2018-03-15T05:43:47.984Z,20.48
2018-03-15T05:46:16.170Z,21.50
2018-03-15T05:48:42.874Z,19.87
2018-03-15T05:51:09.735Z,22.15
2018-03-15T05:53:36.507Z,22.00
2018-03-15T05:56:03.348Z,28.08
2018-03-15T05:58:30.247Z,22.98
2018-03-15T06:00:56.774Z,23.38
2018-03-15T06:03:23.331Z,24.35
2018-03-15T06:05:49.781Z,25.48
2018-03-15T06:08:16.551Z,19.73
2018-03-15T06:10:43.307Z,19.08
2018-03-15T06:13:10.068Z,19.75
2018-03-15T06:15:36.848Z,15.65
2018-03-15T06:18:03.596Z,15.98
2018-03-15T06:20:30.675Z,16.65
2018-03-15T06:22:57.446Z,13.68
2018-03-15T06:25:24.300Z,12.35
2018-03-15T06:27:50.759Z,9.88
2018-03-15T06:30:17.217Z,11.00
2018-03-15T06:32:44.574Z,10.00
2018-03-15T06:35:11.697Z,9.65
2018-03-15T06:37:38.088Z,25.75
2018-03-15T06:40:04.880Z,17.60
2018-03-15T06:42:32.173Z,15.73
2018-03-15T06:44:58.993Z,15.63
2018-03-15T06:47:25.448Z,18.25
2018-03-15T06:49:51.897Z,22.85
2018-03-15T06:52:18.656Z,17.62
2018-03-15T06:54:45.228Z,16.58
2018-03-15T06:57:11.677Z,15.25
2018-03-15T06:59:38.508Z,17.75
2018-03-15T07:02:05.372Z,12.65
2018-03-15T07:04:32.584Z,23.20
2018-03-15T07:06:59.076Z,14.63
2018-03-15T07:09:25.904Z,13.73
2018-03-15T07:11:52.808Z,12.00
2018-03-15T07:14:19.971Z,22.90
2018-03-15T07:16:46.452Z,14.45
2018-03-15T07:19:12.966Z,11.15
2018-03-15T07:21:39.723Z,9.35
2018-03-15T07:24:07.138Z,8.05
2018-03-15T07:26:33.865Z,8.45
2018-03-15T07:29:00.323Z,16.62
2018-03-15T07:31:26.874Z,6.87
2018-03-15T07:33:53.805Z,15.40
2018-03-15T07:36:20.288Z,12.80
2018-03-15T07:38:47.053Z,9.85
2018-03-15T07:41:13.689Z,6.57
2018-03-15T07:43:40.088Z,8.80
2018-03-15T07:46:07.009Z,12.40
2018-03-15T07:48:33.411Z,9.50
2018-03-15T07:51:00.075Z,6.85
2018-03-15T07:53:26.483Z,8.82
2018-03-15T07:55:53.232Z,10.45
2018-03-15T07:58:20.361Z,4.93
2018-03-15T08:00:46.820Z,5.45
2018-03-15T08:03:13.241Z,9.30
2018-03-15T08:05:40.234Z,6.05
2018-03-15T08:08:06.629Z,5.30
2018-03-15T08:10:33.075Z,11.45
2018-03-15T08:12:59.512Z,11.00
2018-03-15T08:15:28.180Z,4.20
2018-03-15T08:17:54.601Z,4.47
2018-03-15T08:20:21.805Z,5.85
2018-03-15T08:22:49.847Z,5.15
2018-03-15T08:25:17.090Z,5.47
2018-03-15T08:27:43.695Z,4.68
2018-03-15T08:30:10.132Z,6.12
2018-03-15T08:32:36.706Z,5.10
2018-03-15T08:35:03.547Z,4.40
2018-03-15T08:37:30.312Z,4.43
2018-03-15T08:39:57.540Z,5.93
2018-03-15T08:42:23.997Z,4.57
2018-03-15T08:44:50.908Z,7.22
2018-03-15T08:47:17.472Z,5.03
2018-03-15T08:49:44.308Z,4.12
2018-03-15T08:52:11.513Z,9.07
2018-03-15T08:54:38.329Z,6.43
2018-03-15T08:57:04.732Z,4.78
2018-03-15T08:59:31.556Z,5.28
2018-03-15T09:01:58.385Z,4.35
2018-03-15T09:04:24.771Z,4.50
2018-03-15T09:06:51.180Z,6.03
2018-03-15T09:09:17.807Z,3.67
2018-03-15T09:11:44.272Z,5.85
2018-03-15T09:14:11.464Z,3.53
2018-03-15T09:16:37.913Z,7.40
2018-03-15T09:19:04.756Z,5.18
2018-03-15T09:21:32.321Z,6.47
2018-03-15T09:23:59.117Z,6.32
2018-03-15T09:26:25.912Z,4.93
2018-03-15T09:28:54.475Z,6.95
2018-03-15T09:31:20.870Z,4.60
2018-03-15T09:33:47.350Z,4.55
2018-03-15T09:36:14.155Z,5.20
2018-03-15T09:38:40.848Z,6.23
2018-03-15T09:41:07.272Z,6.10
2018-03-15T09:43:33.695Z,4.37
2018-03-15T09:46:00.919Z,4.93
2018-03-15T09:48:27.692Z,4.50
2018-03-15T09:50:54.176Z,5.53
2018-03-15T09:53:21.929Z,4.73
2018-03-15T09:55:49.209Z,5.82
2018-03-15T09:58:16.061Z,7.15
2018-03-15T10:00:43.044Z,5.62
2018-03-15T10:03:09.912Z,5.00
2018-03-15T10:05:36.464Z,4.82
2018-03-15T10:08:03.315Z,4.72
2018-03-15T10:10:31.885Z,4.25
2018-03-15T10:12:58.816Z,6.03
2018-03-15T10:15:25.984Z,4.50
2018-03-15T10:17:52.832Z,4.30
2018-03-15T10:20:20.252Z,4.10
2018-03-15T10:22:46.825Z,4.40
2018-03-15T10:25:13.911Z,4.80
2018-03-15T10:27:39.831Z,4.80
2018-03-15T10:30:06.313Z,4.18
2018-03-15T10:32:32.984Z,3.80
2018-03-15T10:35:06.257Z,4.85
2018-03-15T10:37:37.649Z,4.18
2018-03-15T10:40:04.540Z,5.20
2018-03-15T10:42:31.324Z,4.70
2018-03-15T10:44:57.889Z,4.55
2018-03-15T10:47:24.681Z,3.92
2018-03-15T10:49:51.533Z,4.78
2018-03-15T10:52:18.688Z,5.12
2018-03-15T10:54:45.164Z,5.20
2018-03-15T10:57:12.064Z,4.18
2018-03-15T10:59:38.484Z,4.40
2018-03-15T11:02:05.396Z,5.28
2018-03-15T11:04:33.243Z,4.22
2018-03-15T11:06:59.704Z,4.35
2018-03-15T11:09:30.971Z,8.98
2018-03-15T11:11:57.487Z,4.50
2018-03-15T11:14:24.787Z,6.10
2018-03-15T11:16:52.299Z,4.05
2018-03-15T11:19:19.149Z,7.97
2018-03-15T11:21:45.600Z,4.25
2018-03-15T11:24:13.437Z,10.02
2018-03-15T11:26:40.400Z,6.53
2018-03-15T11:29:07.298Z,5.37
2018-03-15T11:31:34.681Z,6.20
2018-03-15T11:34:02.406Z,12.13
2018-03-15T11:36:29.404Z,7.40
2018-03-15T11:38:56.289Z,4.70
2018-03-15T11:41:23.828Z,5.55
2018-03-15T11:43:50.370Z,6.65
2018-03-15T11:46:17.192Z,3.37
2018-03-15T11:48:43.688Z,3.00
2018-03-15T11:51:10.100Z,4.87
2018-03-15T11:53:37.313Z,4.35
2018-03-15T11:56:04.501Z,5.22
2018-03-15T11:58:30.912Z,2.95
2018-03-15T12:00:57.376Z,3.90
2018-03-15T12:03:24.187Z,3.37
2018-03-15T12:05:51.228Z,9.93
2018-03-15T12:08:17.871Z,4.78
2018-03-15T12:10:44.340Z,2.78
2018-03-15T12:13:10.831Z,2.72
2018-03-15T12:15:37.824Z,4.07
2018-03-15T12:18:04.305Z,3.50
2018-03-15T12:20:30.914Z,3.17
2018-03-15T12:22:57.742Z,3.45
2018-03-15T12:25:24.143Z,3.33
2018-03-15T12:27:50.965Z,4.65
2018-03-15T12:30:17.736Z,3.70
2018-03-15T12:32:44.200Z,4.15
2018-03-15T12:35:10.688Z,8.80
2018-03-15T12:37:37.456Z,4.53
2018-03-15T12:40:03.969Z,4.50
2018-03-15T12:42:30.829Z,3.95
2018-03-15T12:44:57.802Z,5.03
2018-03-15T12:47:24.563Z,3.95
2018-03-15T12:49:51.459Z,3.75
2018-03-15T12:52:18.292Z,4.10
2018-03-15T12:54:45.126Z,4.45
2018-03-15T12:57:11.603Z,4.30
2018-03-15T12:59:38.499Z,4.12
2018-03-15T13:02:04.914Z,4.45
2018-03-15T13:04:32.080Z,5.22
2018-03-15T13:06:59.211Z,4.22
2018-03-15T13:09:25.985Z,3.80
2018-03-15T13:11:53.182Z,3.95
2018-03-15T13:14:19.652Z,3.50
2018-03-15T13:16:46.493Z,3.80
2018-03-15T13:19:12.948Z,3.67
2018-03-15T13:21:39.474Z,4.27
2018-03-15T13:24:07.093Z,4.07
2018-03-15T13:26:33.568Z,4.73
2018-03-15T13:28:59.991Z,6.47
2018-03-15T13:31:26.872Z,5.03
2018-03-15T13:33:53.319Z,4.37
2018-03-15T13:36:19.716Z,4.57
2018-03-15T13:38:46.193Z,4.15
2018-03-15T13:41:12.978Z,5.63
2018-03-15T13:43:41.446Z,6.30
2018-03-15T13:46:09.422Z,6.45
2018-03-15T13:48:36.270Z,6.03
2018-03-15T13:51:02.815Z,4.00
2018-03-15T13:53:30.009Z,4.83
2018-03-15T13:55:58.036Z,4.20
2018-03-15T13:58:24.935Z,6.70
2018-03-15T14:00:52.686Z,4.33
2018-03-15T14:03:19.534Z,5.00
2018-03-15T14:05:46.367Z,8.33
2018-03-15T14:08:13.145Z,4.95
2018-03-15T14:10:39.988Z,5.67
2018-03-15T14:13:06.417Z,5.00
2018-03-15T14:15:33.323Z,4.33
2018-03-15T14:18:00.228Z,9.40
2018-03-15T14:20:26.808Z,4.00
2018-03-15T14:22:53.264Z,4.30
2018-03-15T14:25:19.739Z,4.00
2018-03-15T14:27:46.370Z,4.60
2018-03-15T14:30:13.009Z,4.00
2018-03-15T14:32:39.486Z,4.70
2018-03-15T14:35:05.927Z,4.22
2018-03-15T14:37:32.791Z,5.20
2018-03-15T14:39:59.564Z,5.97
2018-03-15T14:42:26.382Z,7.03
2018-03-15T14:44:53.033Z,7.25
2018-03-15T14:47:20.548Z,5.32
2018-03-15T14:49:47.069Z,6.55
2018-03-15T14:52:14.251Z,7.03
2018-03-15T14:54:40.667Z,5.25
2018-03-15T14:57:07.428Z,5.93
2018-03-15T14:59:35.695Z,5.82
2018-03-15T15:02:02.123Z,6.90
2018-03-15T15:04:29.317Z,6.18
2018-03-15T15:06:55.707Z,5.87
2018-03-15T15:09:22.164Z,8.80
2018-03-15T15:11:48.603Z,7.70
2018-03-15T15:14:15.377Z,9.55
2018-03-15T15:16:42.287Z,10.35
2018-03-15T15:19:09.116Z,5.40
2018-03-15T15:21:36.780Z,5.45
2018-03-15T15:24:03.637Z,5.05
2018-03-15T15:26:30.063Z,5.62
2018-03-15T15:28:56.503Z,5.55
2018-03-15T15:31:23.023Z,6.22
2018-03-15T15:33:49.776Z,5.95
2018-03-15T15:36:16.168Z,7.12
2018-03-15T15:38:43.596Z,7.70
2018-03-15T15:41:10.482Z,10.30
2018-03-15T15:43:36.888Z,7.75
2018-03-15T15:46:03.296Z,13.25
2018-03-15T15:48:30.127Z,17.33
2018-03-15T15:50:57.353Z,20.73
2018-03-15T15:53:24.992Z,17.52
2018-03-15T15:55:51.824Z,10.32
2018-03-15T15:58:18.663Z,7.60
2018-03-15T16:00:45.132Z,8.13
2018-03-15T16:03:11.669Z,7.95
2018-03-15T16:05:38.137Z,11.23
2018-03-15T16:08:04.537Z,6.75
2018-03-15T16:10:31.049Z,9.07
2018-03-15T16:12:57.550Z,8.75
2018-03-15T16:15:24.117Z,8.95
2018-03-15T16:17:50.504Z,8.85
2018-03-15T16:20:16.887Z,10.27
2018-03-15T16:22:44.620Z,14.45
2018-03-15T16:25:11.395Z,10.27
2018-03-15T16:27:38.180Z,9.77
2018-03-15T16:30:04.632Z,14.25
2018-03-15T16:32:31.100Z,8.32
2018-03-15T16:34:58.283Z,9.20
2018-03-15T16:37:24.806Z,9.45
2018-03-15T16:39:51.197Z,13.00
2018-03-15T16:42:18.086Z,11.12
2018-03-15T16:44:44.562Z,26.60
2018-03-15T16:47:12.110Z,16.55
2018-03-15T16:49:38.607Z,11.20
2018-03-15T16:52:05.446Z,12.73
2018-03-15T16:54:32.289Z,11.05
2018-03-15T16:56:58.751Z,16.55
2018-03-15T16:59:26.003Z,16.98
2018-03-15T17:01:53.109Z,15.45
2018-03-15T17:04:20.033Z,15.00
2018-03-15T17:06:46.852Z,14.52
2018-03-15T17:09:13.277Z,19.25
2018-03-15T17:11:40.386Z,16.73
2018-03-15T17:14:07.700Z,19.77
2018-03-15T17:16:34.108Z,18.75
2018-03-15T17:19:00.868Z,20.55
2018-03-15T17:21:27.903Z,26.90
2018-03-15T17:23:54.656Z,27.25
2018-03-15T17:26:21.068Z,30.37
2018-03-15T17:28:47.464Z,28.15
2018-03-15T17:31:15.598Z,26.95
2018-03-15T17:33:42.060Z,28.98
2018-03-15T17:36:08.925Z,31.45
2018-03-15T17:38:36.102Z,31.67
2018-03-15T17:41:03.188Z,34.05
2018-03-15T17:43:30.115Z,30.88
2018-03-15T17:45:56.876Z,31.33
2018-03-15T17:48:23.319Z,30.77
2018-03-15T17:50:50.565Z,33.33
2018-03-15T17:53:17.730Z,41.40
2018-03-15T17:55:44.270Z,42.47
2018-03-15T17:58:11.030Z,36.97
2018-03-15T18:00:37.517Z,38.55
2018-03-15T18:03:03.929Z,35.28
2018-03-15T18:05:31.131Z,32.85
2018-03-15T18:07:57.513Z,39.85
2018-03-15T18:10:23.957Z,36.38
2018-03-15T18:12:50.724Z,44.75
2018-03-15T18:15:17.200Z,45.10
2018-03-15T18:17:43.603Z,37.55
2018-03-15T18:20:09.992Z,31.80
2018-03-15T18:22:36.388Z,30.67
2018-03-15T18:25:03.058Z,33.38
2018-03-15T18:27:29.477Z,36.00
2018-03-15T18:29:55.848Z,22.75
2018-03-15T18:32:22.685Z,30.05
2018-03-15T18:34:49.093Z,39.70
2018-03-15T18:37:15.870Z,44.53
2018-03-15T18:39:42.380Z,41.05
2018-03-15T18:42:08.772Z,38.50
2018-03-15T18:44:35.164Z,40.88
2018-03-15T18:47:01.952Z,40.83
2018-03-15T18:49:28.709Z,38.83
2018-03-15T18:51:55.127Z,43.20
2018-03-15T18:54:21.781Z,37.95
2018-03-15T18:56:48.281Z,36.03
2018-03-15T18:59:14.779Z,37.58
2018-03-15T19:01:41.368Z,30.77
2018-03-15T19:04:08.851Z,37.70
2018-03-15T19:06:35.256Z,36.05
2018-03-15T19:09:02.572Z,36.97
2018-03-15T19:11:29.003Z,44.22
2018-03-15T19:13:55.632Z,52.42
2018-03-15T19:16:22.060Z,54.50
2018-03-15T19:18:48.679Z,57.85
2018-03-15T19:21:15.461Z,65.18
2018-03-15T19:23:41.848Z,61.80
2018-03-15T19:26:08.695Z,67.50
2018-03-15T19:28:35.824Z,69.78
2018-03-15T19:31:02.292Z,64.37
2018-03-15T19:33:29.065Z,63.13
2018-03-15T19:35:56.207Z,71.95
2018-03-15T19:38:23.988Z,61.47
2018-03-15T19:40:50.388Z,61.08
2018-03-15T19:43:16.849Z,60.28
2018-03-15T19:45:43.620Z,52.40
2018-03-15T19:48:10.424Z,62.45
2018-03-15T19:50:37.268Z,57.17
2018-03-15T19:53:03.717Z,58.83
2018-03-15T19:55:30.114Z,49.72
2018-03-15T19:57:56.503Z,52.75
2018-03-15T20:00:24.003Z,51.92
2018-03-15T20:02:50.452Z,51.00
2018-03-15T20:05:17.290Z,51.45
2018-03-15T20:07:44.428Z,51.30
2018-03-15T20:10:10.911Z,50.92
2018-03-15T20:12:37.742Z,49.03
2018-03-15T20:15:04.242Z,51.45
2018-03-15T20:17:30.745Z,52.10
2018-03-15T20:19:57.156Z,47.62
2018-03-15T20:22:29.867Z,53.78
2018-03-15T20:24:56.628Z,48.10
2018-03-15T20:27:29.423Z,48.10
2018-03-15T20:29:55.840Z,56.17
2018-03-15T20:32:28.517Z,51.85
2018-03-15T20:34:55.484Z,54.63
2018-03-15T20:37:22.262Z,54.17
2018-03-15T20:39:55.311Z,54.17
2018-03-15T20:42:21.836Z,50.67
2018-03-15T20:44:48.674Z,52.00
2018-03-15T20:47:20.950Z,54.28
2018-03-15T20:49:47.349Z,60.75
2018-03-15T20:52:13.748Z,53.38
2018-03-15T20:54:40.524Z,57.70
2018-03-15T20:57:07.275Z,54.20
2018-03-15T20:59:33.664Z,49.92
2018-03-15T21:02:00.860Z,52.83
2018-03-15T21:04:27.813Z,55.25
2018-03-15T21:06:54.338Z,53.10
2018-03-15T21:09:20.770Z,57.38
2018-03-15T21:11:47.613Z,62.95
2018-03-15T21:14:14.068Z,72.93
2018-03-15T21:16:42.172Z,64.75
2018-03-15T21:19:09.888Z,65.87
2018-03-15T21:21:36.296Z,65.28
2018-03-15T21:24:03.553Z,67.80
2018-03-15T21:26:30.025Z,71.18
2018-03-15T21:28:56.432Z,61.17
2018-03-15T21:31:22.855Z,69.07
2018-03-15T21:33:49.251Z,78.03
2018-03-15T21:36:16.094Z,83.72
2018-03-15T21:38:43.886Z,91.32
2018-03-15T21:41:11.032Z,83.15
2018-03-15T21:43:38.159Z,89.47
2018-03-15T21:46:04.945Z,92.07
2018-03-15T21:48:31.424Z,84.60
2018-03-15T21:50:57.913Z,78.40
2018-03-15T21:53:24.778Z,84.00
2018-03-15T21:55:51.179Z,83.75
2018-03-15T21:58:17.578Z,77.82
2018-03-15T22:00:44.577Z,89.82
2018-03-15T22:03:11.406Z,86.45
2018-03-15T22:05:37.828Z,85.53
2018-03-15T22:08:05.903Z,84.32
2018-03-15T22:10:33.440Z,85.55
2018-03-15T22:13:00.985Z,81.97
2018-03-15T22:15:27.804Z,81.15
2018-03-15T22:17:54.961Z,80.03
2018-03-15T22:20:21.386Z,76.57
2018-03-15T22:22:47.840Z,75.05
2018-03-15T22:25:15.109Z,70.97
2018-03-15T22:27:41.512Z,80.07
2018-03-15T22:30:08.445Z,78.50
2018-03-15T22:32:35.964Z,77.72
2018-03-15T22:35:02.770Z,66.10
2018-03-15T22:37:30.656Z,76.47
2018-03-15T22:39:57.476Z,68.00
2018-03-15T22:42:23.936Z,66.80
2018-03-15T22:44:50.710Z,63.20
2018-03-15T22:47:17.334Z,70.57
2018-03-15T22:49:45.360Z,83.45
2018-03-15T22:52:12.185Z,76.68
2018-03-15T22:54:39.019Z,87.32
2018-03-15T22:57:05.604Z,86.85
2018-03-15T22:59:32.848Z,107.10
2018-03-15T23:01:59.688Z,105.63
2018-03-15T23:04:26.464Z,116.68
2018-03-15T23:06:53.676Z,114.50
2018-03-15T23:09:20.436Z,107.18
2018-03-15T23:11:47.244Z,106.20
2018-03-15T23:14:13.713Z,103.20
2018-03-15T23:16:40.931Z,124.10
2018-03-15T23:19:07.333Z,116.65
2018-03-15T23:21:34.178Z,103.75
2018-03-15T23:37:18.251Z,74.22
2018-03-15T23:39:45.204Z,70.78
2018-03-15T23:42:12.010Z,59.60
2018-03-15T23:44:38.423Z,62.80
2018-03-15T23:47:04.911Z,57.67
2018-03-15T23:49:32.098Z,65.85
2018-03-15T23:51:58.499Z,68.28
2018-03-15T23:54:24.909Z,65.30
2018-03-15T23:56:51.429Z,68.35
2018-03-15T23:59:18.389Z,64.10
